createdAt,value
2018-09-08T00:01:44.333Z,98.90
2018-09-08T00:04:12.477Z,98.10
2018-09-08T00:06:40.582Z,97.20
2018-09-08T00:09:09.477Z,96.90
2018-09-08T00:11:37.983Z,96.90
2018-09-08T00:14:06.182Z,97.60
2018-09-08T00:16:39.816Z,97.80
2018-09-08T00:19:13.283Z,97.90
2018-09-08T00:21:46.909Z,98.50
2018-09-08T00:24:20.560Z,97.10
2018-09-08T00:26:48.001Z,96.40
2018-09-08T00:29:23.551Z,96.20
2018-09-08T00:31:51.694Z,96.40
2018-09-08T00:34:19.868Z,96.70
2018-09-08T00:36:47.972Z,97.00
2018-09-08T00:39:16.144Z,96.90
2018-09-08T00:41:44.318Z,96.40
2018-09-08T00:44:12.434Z,97.20
2018-09-08T00:46:40.553Z,96.70
2018-09-08T00:49:08.725Z,96.80
2018-09-08T00:51:36.857Z,96.70
2018-09-08T00:54:04.996Z,96.60
2018-09-08T00:56:33.108Z,97.30
2018-09-08T00:59:04.308Z,96.90
2018-09-08T01:01:33.614Z,97.10
2018-09-08T01:04:01.732Z,97.70
2018-09-08T01:06:29.900Z,97.40
2018-09-08T01:08:58.033Z,97.40
2018-09-08T01:11:26.184Z,97.20
2018-09-08T01:13:54.352Z,97.10
2018-09-08T01:16:22.544Z,97.50
2018-09-08T01:18:50.695Z,97.90
2018-09-08T01:21:18.815Z,98.40
2018-09-08T01:23:51.939Z,98.40
2018-09-08T01:26:20.796Z,98.80
2018-09-08T01:28:49.705Z,98.80
2018-09-08T01:31:18.080Z,98.40
2018-09-08T01:33:46.224Z,99.00
2018-09-08T01:36:14.505Z,98.20
2018-09-08T01:38:42.641Z,98.40
2018-09-08T01:41:10.817Z,98.60
2018-09-08T01:43:38.950Z,98.70
2018-09-08T01:46:07.445Z,98.40
2018-09-08T01:48:41.920Z,97.80
2018-09-08T01:51:10.126Z,97.30
2018-09-08T01:53:38.283Z,96.90
2018-09-08T01:56:06.633Z,97.10
2018-09-08T01:58:34.775Z,97.80
2018-09-08T02:01:02.874Z,98.20
2018-09-08T02:03:31.005Z,98.30
2018-09-08T02:05:59.099Z,98.20
2018-09-08T02:08:27.212Z,99.00
2018-09-08T02:10:55.311Z,98.00
2018-09-08T02:13:23.449Z,97.20
2018-09-08T02:15:51.585Z,97.00
2018-09-08T02:18:19.785Z,96.80
2018-09-08T02:20:47.941Z,97.00
2018-09-08T02:23:16.068Z,97.00
2018-09-08T02:25:44.282Z,97.10
2018-09-08T02:28:12.371Z,97.20
2018-09-08T02:30:40.549Z,98.10
2018-09-08T02:33:08.635Z,98.30
2018-09-08T02:35:36.768Z,98.20
2018-09-08T02:38:04.946Z,97.80
2018-09-08T02:40:33.137Z,97.90
2018-09-08T02:43:01.267Z,97.30
2018-09-08T02:45:29.392Z,96.60
2018-09-08T02:47:57.579Z,95.80
2018-09-08T02:50:28.143Z,96.00
2018-09-08T02:52:55.412Z,95.80
2018-09-08T02:55:22.619Z,95.10
2018-09-08T02:57:49.881Z,94.60
2018-09-08T03:00:17.156Z,93.60
2018-09-08T03:02:44.379Z,92.20
2018-09-08T03:05:11.607Z,91.20
2018-09-08T03:07:38.850Z,90.80
2018-09-08T03:10:06.092Z,90.70
2018-09-08T03:12:33.359Z,90.20
2018-09-08T03:15:00.595Z,89.90
2018-09-08T03:17:27.915Z,90.30
2018-09-08T03:19:55.140Z,90.20
2018-09-08T03:22:22.718Z,88.20
2018-09-08T03:24:50.278Z,87.50
2018-09-08T03:27:17.749Z,88.60
2018-09-08T03:29:45.006Z,89.60
2018-09-08T03:32:12.456Z,90.40
2018-09-08T03:34:39.766Z,91.10
2018-09-08T03:37:07.021Z,91.60
2018-09-08T03:39:34.320Z,91.80
2018-09-08T03:42:01.591Z,92.00
2018-09-08T03:44:28.906Z,92.30
2018-09-08T03:46:56.119Z,92.50
2018-09-08T03:49:23.355Z,92.50
2018-09-08T03:51:51.115Z,91.80
2018-09-08T03:54:18.404Z,91.40
2018-09-08T03:56:45.672Z,91.60
2018-09-08T03:59:12.946Z,91.80
2018-09-08T04:01:40.225Z,92.20
2018-09-08T04:04:08.323Z,93.00
2018-09-08T04:06:36.439Z,92.90
2018-09-08T04:09:07.588Z,92.40
2018-09-08T04:11:35.728Z,92.40
2018-09-08T04:14:03.930Z,91.30
2018-09-08T04:16:32.105Z,92.00
2018-09-08T04:19:00.208Z,90.90
2018-09-08T04:21:28.428Z,91.20
2018-09-08T04:23:56.573Z,91.50
2018-09-08T04:26:24.708Z,91.60
2018-09-08T04:28:52.886Z,92.20
2018-09-08T04:31:21.016Z,92.60
2018-09-08T04:33:49.101Z,92.80
2018-09-08T04:36:17.253Z,92.60
2018-09-08T04:38:45.405Z,92.70
2018-09-08T04:41:13.545Z,92.70
2018-09-08T04:43:42.303Z,92.70
2018-09-08T04:46:10.401Z,92.90
2018-09-08T04:48:38.574Z,93.30
2018-09-08T04:51:06.859Z,93.30
2018-09-08T04:53:34.997Z,93.20
2018-09-08T04:56:03.192Z,93.30
2018-09-08T04:58:31.340Z,93.40
2018-09-08T05:00:59.534Z,93.50
2018-09-08T05:03:27.917Z,94.10
2018-09-08T05:05:56.120Z,94.00
2018-09-08T05:08:24.241Z,93.70
2018-09-08T05:10:52.389Z,94.20
2018-09-08T05:13:20.572Z,94.50
2018-09-08T05:15:48.708Z,93.50
2018-09-08T05:18:16.860Z,92.10
2018-09-08T05:20:45.008Z,91.80
2018-09-08T05:23:13.126Z,90.00
2018-09-08T05:25:41.243Z,87.70
2018-09-08T05:28:09.361Z,85.60
2018-09-08T05:30:37.488Z,79.30
2018-09-08T05:33:05.659Z,75.60
2018-09-08T05:35:33.833Z,77.00
2018-09-08T05:38:02.050Z,77.50
2018-09-08T05:40:30.205Z,78.00
2018-09-08T05:42:58.366Z,78.50
2018-09-08T05:45:26.528Z,77.70
2018-09-08T05:47:54.702Z,74.30
2018-09-08T05:50:22.854Z,71.40
2018-09-08T05:52:50.998Z,68.40
2018-09-08T05:55:19.151Z,66.50
2018-09-08T05:57:47.286Z,65.70
2018-09-08T06:00:15.520Z,65.50
2018-09-08T06:02:43.595Z,67.30
2018-09-08T06:05:11.820Z,64.90
2018-09-08T06:07:40.000Z,61.00
2018-09-08T06:10:08.227Z,57.20
2018-09-08T06:12:36.523Z,55.80
2018-09-08T06:15:04.680Z,55.90
2018-09-08T06:17:32.865Z,52.40
2018-09-08T06:20:01.008Z,48.90
2018-09-08T06:22:29.205Z,49.00
2018-09-08T06:24:57.386Z,50.20
2018-09-08T06:27:25.529Z,51.20
2018-09-08T06:29:53.694Z,52.80
2018-09-08T06:32:21.814Z,51.10
2018-09-08T06:34:49.939Z,49.30
2018-09-08T06:37:18.061Z,48.40
2018-09-08T06:39:46.205Z,48.30
2018-09-08T06:42:14.408Z,48.50
2018-09-08T06:44:42.689Z,47.20
2018-09-08T06:47:10.798Z,37.80
2018-09-08T06:49:38.913Z,34.80
2018-09-08T06:52:07.076Z,30.60
2018-09-08T06:54:35.212Z,29.10
2018-09-08T06:57:03.395Z,22.70
2018-09-08T06:59:31.561Z,19.00
2018-09-08T07:01:59.639Z,17.00
2018-09-08T07:04:27.744Z,14.80
2018-09-08T07:06:55.903Z,13.30
2018-09-08T07:09:24.130Z,11.70
2018-09-08T07:11:52.296Z,13.50
2018-09-08T07:14:20.441Z,12.30
2018-09-08T07:16:48.653Z,10.80
2018-09-08T07:19:16.852Z,9.10
2018-09-08T07:21:45.078Z,7.60
2018-09-08T07:24:13.188Z,8.20
2018-09-08T07:26:41.256Z,7.10
2018-09-08T07:29:09.481Z,6.40
2018-09-08T07:31:37.592Z,7.30
2018-09-08T07:34:05.687Z,5.90
2018-09-08T07:36:34.082Z,6.30
2018-09-08T07:39:02.262Z,5.70
2018-09-08T07:41:32.213Z,4.80
2018-09-08T07:44:00.343Z,6.20
2018-09-08T07:46:28.451Z,6.00
2018-09-08T07:48:57.307Z,4.00
2018-09-08T07:51:25.744Z,5.00
2018-09-08T07:53:53.967Z,7.30
2018-09-08T07:56:22.121Z,6.30
2018-09-08T07:58:50.536Z,6.40
2018-09-08T08:01:18.754Z,3.60
2018-09-08T08:03:47.019Z,3.70
2018-09-08T08:06:15.190Z,4.50
2018-09-08T08:08:43.418Z,4.60
2018-09-08T08:11:11.600Z,6.30
2018-09-08T08:13:39.871Z,5.10
2018-09-08T08:16:08.049Z,5.80
2018-09-08T08:18:36.205Z,6.70
2018-09-08T08:21:04.357Z,4.50
2018-09-08T08:23:32.557Z,4.10
2018-09-08T08:26:00.735Z,2.60
2018-09-08T08:28:29.100Z,3.60
2018-09-08T08:30:57.316Z,4.30
2018-09-08T08:33:25.445Z,1.10
2018-09-08T08:35:53.650Z,1.90
2018-09-08T08:38:21.882Z,2.40
2018-09-08T08:40:49.983Z,3.60
2018-09-08T08:43:18.208Z,3.90
2018-09-08T08:45:46.328Z,4.00
2018-09-08T08:48:14.584Z,1.50
2018-09-08T08:50:56.887Z,1.60
2018-09-08T08:53:36.642Z,1.00
2018-09-08T08:56:04.848Z,1.00
2018-09-08T08:58:32.962Z,1.00
2018-09-08T09:01:01.095Z,1.00
2018-09-08T09:03:29.229Z,1.00
2018-09-08T09:05:57.391Z,1.00
2018-09-08T09:08:25.906Z,1.00
2018-09-08T09:10:53.652Z,1.00
2018-09-08T09:13:21.845Z,1.00
2018-09-08T09:15:49.947Z,1.00
2018-09-08T09:18:30.157Z,1.00
2018-09-08T09:21:09.415Z,1.00
2018-09-08T09:24:53.724Z,1.00
2018-09-08T09:27:22.014Z,1.00
2018-09-08T09:29:50.153Z,1.00
2018-09-08T09:32:18.286Z,1.00
2018-09-08T09:34:46.425Z,1.00
2018-09-08T09:37:14.562Z,1.00
2018-09-08T09:39:42.765Z,1.00
2018-09-08T09:42:10.993Z,1.00
2018-09-08T09:44:39.162Z,1.00
2018-09-08T09:47:07.304Z,1.00
2018-09-08T09:49:35.461Z,1.00
2018-09-08T09:52:03.596Z,1.00
2018-09-08T09:54:31.704Z,1.00
2018-09-08T09:56:59.814Z,1.00
2018-09-08T09:59:27.911Z,1.00
2018-09-08T10:02:01.541Z,1.00
2018-09-08T10:04:29.627Z,1.00
2018-09-08T10:06:57.749Z,1.00
2018-09-08T10:09:25.835Z,1.00
2018-09-08T10:11:53.944Z,1.00
2018-09-08T10:14:22.092Z,1.00
2018-09-08T10:16:50.217Z,1.00
2018-09-08T10:19:18.335Z,1.00
2018-09-08T10:21:46.529Z,1.00
2018-09-08T10:24:14.692Z,1.00
2018-09-08T10:26:42.840Z,1.00
2018-09-08T10:29:10.923Z,1.00
2018-09-08T10:31:39.071Z,1.00
2018-09-08T10:34:07.256Z,1.00
2018-09-08T10:36:35.392Z,1.00
2018-09-08T10:39:03.515Z,1.00
2018-09-08T10:41:31.880Z,1.00
2018-09-08T10:44:00.199Z,1.00
2018-09-08T10:46:28.295Z,1.00
2018-09-08T10:48:56.405Z,1.00
2018-09-08T10:52:30.298Z,1.00
2018-09-08T10:54:58.422Z,1.00
2018-09-08T10:57:26.538Z,1.00
2018-09-08T10:59:54.633Z,1.00
2018-09-08T11:02:23.151Z,1.00
2018-09-08T11:04:51.049Z,1.00
2018-09-08T11:07:19.279Z,1.00
2018-09-08T11:09:47.382Z,1.00
2018-09-08T11:12:15.455Z,1.00
2018-09-08T11:14:43.625Z,1.00
2018-09-08T11:17:11.799Z,1.00
2018-09-08T11:19:42.286Z,1.00
2018-09-08T11:22:10.437Z,1.00
2018-09-08T11:24:38.620Z,1.00
2018-09-08T11:27:06.743Z,1.00
2018-09-08T11:29:35.033Z,1.00
2018-09-08T11:32:03.137Z,1.00
2018-09-08T11:34:31.596Z,1.00
2018-09-08T11:36:59.713Z,1.00
2018-09-08T11:39:27.972Z,1.00
2018-09-08T11:41:56.181Z,1.00
2018-09-08T11:44:26.301Z,1.00
2018-09-08T11:46:54.480Z,1.00
2018-09-08T11:49:22.585Z,1.00
2018-09-08T11:51:50.700Z,1.00
2018-09-08T11:54:18.862Z,1.00
2018-09-08T11:56:46.989Z,1.00
2018-09-08T11:59:15.093Z,1.00
2018-09-08T12:01:43.220Z,1.00
2018-09-08T12:04:11.299Z,1.00
2018-09-08T12:06:39.415Z,1.00
2018-09-08T12:09:08.605Z,1.00
2018-09-08T12:11:36.850Z,1.00
2018-09-08T12:14:04.915Z,1.00
2018-09-08T12:16:33.053Z,1.00
2018-09-08T12:19:01.277Z,1.00
2018-09-08T12:21:29.353Z,1.00
2018-09-08T12:23:57.443Z,1.00
2018-09-08T12:26:25.592Z,1.00
2018-09-08T12:28:53.648Z,1.00
2018-09-08T12:31:21.792Z,1.00
2018-09-08T12:33:49.948Z,1.00
2018-09-08T12:36:18.096Z,1.00
2018-09-08T12:38:46.207Z,1.00
2018-09-08T12:41:14.410Z,1.00
2018-09-08T12:43:42.516Z,1.00
2018-09-08T12:46:10.675Z,1.00
2018-09-08T12:48:38.845Z,1.00
2018-09-08T12:51:07.093Z,1.00
2018-09-08T12:53:35.245Z,1.00
2018-09-08T12:56:03.425Z,1.00
2018-09-08T12:58:31.557Z,1.00
2018-09-08T13:01:00.232Z,1.00
2018-09-08T13:03:28.367Z,1.00
2018-09-08T13:05:56.447Z,1.00
2018-09-08T13:08:24.569Z,1.00
2018-09-08T13:10:52.728Z,1.00
2018-09-08T13:13:21.000Z,1.00
2018-09-08T13:15:49.161Z,1.00
2018-09-08T13:18:17.404Z,1.00
2018-09-08T13:20:45.545Z,1.00
2018-09-08T13:23:13.978Z,1.00
2018-09-08T13:25:42.133Z,1.00
2018-09-08T13:28:10.282Z,1.00
2018-09-08T13:30:39.401Z,1.00
2018-09-08T13:33:07.624Z,1.00
2018-09-08T13:35:35.856Z,1.00
2018-09-08T13:38:04.085Z,1.00
2018-09-08T13:40:32.215Z,1.00
2018-09-08T13:43:01.260Z,1.00
2018-09-08T13:45:29.372Z,1.00
2018-09-08T13:47:57.501Z,1.00
2018-09-08T13:50:26.367Z,1.00
2018-09-08T13:52:56.851Z,1.00
2018-09-08T13:55:27.396Z,1.00
2018-09-08T13:57:55.955Z,1.00
2018-09-08T14:00:24.238Z,1.00
2018-09-08T14:02:52.545Z,1.00
2018-09-08T14:05:20.930Z,1.00
2018-09-08T14:07:51.424Z,1.00
2018-09-08T14:10:19.511Z,1.00
2018-09-08T14:12:47.916Z,1.00
2018-09-08T14:15:16.120Z,1.00
2018-09-08T14:17:44.320Z,1.00
2018-09-08T14:20:12.485Z,1.00
2018-09-08T14:22:40.632Z,1.00
2018-09-08T14:25:08.730Z,1.00
2018-09-08T14:27:36.826Z,1.00
2018-09-08T14:30:05.994Z,1.00
2018-09-08T14:32:34.086Z,1.00
2018-09-08T14:35:02.196Z,1.00
2018-09-08T14:37:30.267Z,1.00
2018-09-08T14:39:58.681Z,1.00
2018-09-08T14:42:26.755Z,1.00
2018-09-08T14:44:54.870Z,1.00
2018-09-08T14:47:23.371Z,1.00
2018-09-08T14:49:51.756Z,1.00
2018-09-08T14:52:26.345Z,1.00
2018-09-08T14:54:54.487Z,1.00
2018-09-08T14:57:22.737Z,1.00
2018-09-08T14:59:50.938Z,1.00
2018-09-08T15:02:21.476Z,1.00
2018-09-08T15:04:49.640Z,1.00
2018-09-08T15:07:17.744Z,1.00
2018-09-08T15:09:45.865Z,1.00
2018-09-08T15:12:13.938Z,1.00
2018-09-08T15:14:42.095Z,1.00
2018-09-08T15:17:10.201Z,1.00
2018-09-08T15:19:38.402Z,1.00
2018-09-08T15:22:06.600Z,1.00
2018-09-08T15:24:34.742Z,1.00
2018-09-08T15:27:02.843Z,1.00
2018-09-08T15:29:30.973Z,1.00
2018-09-08T15:31:59.494Z,1.00
2018-09-08T15:34:27.709Z,1.00
2018-09-08T15:37:03.616Z,1.00
2018-09-08T15:39:31.769Z,1.00
2018-09-08T15:42:00.794Z,1.00
2018-09-08T15:44:30.885Z,1.00
2018-09-08T15:46:58.953Z,1.00
2018-09-08T15:49:27.574Z,1.00
2018-09-08T15:51:55.738Z,1.00
2018-09-08T15:54:24.811Z,1.00
2018-09-08T15:56:53.208Z,1.00
2018-09-08T15:59:21.504Z,1.00
2018-09-08T16:01:49.665Z,1.00
2018-09-08T16:04:17.816Z,1.00
2018-09-08T16:06:45.883Z,1.00
2018-09-08T16:09:16.869Z,1.00
2018-09-08T16:11:45.476Z,1.00
2018-09-08T16:14:15.754Z,1.00
2018-09-08T16:16:45.871Z,1.00
2018-09-08T16:19:14.562Z,1.00
2018-09-08T16:21:42.806Z,1.00
2018-09-08T16:24:11.069Z,1.00
2018-09-08T16:26:39.471Z,1.00
2018-09-08T16:29:07.720Z,1.00
2018-09-08T16:31:35.847Z,1.00
2018-09-08T16:34:05.336Z,1.00
2018-09-08T16:36:35.485Z,1.00
2018-09-08T16:39:04.707Z,1.00
2018-09-08T16:41:33.028Z,1.00
2018-09-08T16:44:01.161Z,1.00
2018-09-08T16:46:29.285Z,1.00
2018-09-08T16:48:57.501Z,1.00
2018-09-08T16:51:25.599Z,1.00
2018-09-08T16:53:53.698Z,1.00
2018-09-08T16:56:23.107Z,1.00
2018-09-08T16:58:51.285Z,1.00
2018-09-08T17:01:19.433Z,2.10
2018-09-08T17:03:47.676Z,2.30
2018-09-08T17:06:15.801Z,2.70
2018-09-08T17:08:43.979Z,3.00
2018-09-08T17:11:12.802Z,3.50
2018-09-08T17:13:40.984Z,3.90
2018-09-08T17:16:09.092Z,4.60
2018-09-08T17:18:37.225Z,4.70
2018-09-08T17:21:05.409Z,4.90
2018-09-08T17:23:33.547Z,5.80
2018-09-08T17:26:01.676Z,4.70
2018-09-08T17:28:29.773Z,5.70
2018-09-08T17:30:57.918Z,6.60
2018-09-08T17:33:26.062Z,5.80
2018-09-08T17:35:54.242Z,6.70
2018-09-08T17:38:29.225Z,7.30
2018-09-08T17:40:57.817Z,7.90
2018-09-08T17:43:25.979Z,8.00
2018-09-08T17:45:54.120Z,9.00
2018-09-08T17:48:22.347Z,8.50
2018-09-08T17:50:50.545Z,9.40
2018-09-08T17:53:18.689Z,9.70
2018-09-08T17:55:46.807Z,10.40
2018-09-08T17:58:15.233Z,11.40
2018-09-08T18:00:43.401Z,11.10
2018-09-08T18:03:11.612Z,11.60
2018-09-08T18:05:39.750Z,11.90
2018-09-08T18:08:07.948Z,12.30
2018-09-08T18:10:36.223Z,12.80
2018-09-08T18:13:04.618Z,12.00
2018-09-08T18:15:32.761Z,13.20
2018-09-08T18:18:00.856Z,15.00
2018-09-08T18:20:29.051Z,16.00
2018-09-08T18:22:57.215Z,15.20
2018-09-08T18:25:25.429Z,14.40
2018-09-08T18:27:53.640Z,15.40
2018-09-08T18:30:22.070Z,15.50
2018-09-08T18:32:50.355Z,14.70
2018-09-08T18:35:18.617Z,14.80
2018-09-08T18:37:47.511Z,16.00
2018-09-08T18:40:15.641Z,16.40
2018-09-08T18:42:43.769Z,17.60
2018-09-08T18:45:11.978Z,18.00
2018-09-08T18:47:40.174Z,18.90
2018-09-08T18:50:08.480Z,19.20
2018-09-08T18:52:36.716Z,19.30
2018-09-08T18:55:05.031Z,20.00
2018-09-08T18:57:33.333Z,19.80
2018-09-08T19:00:01.541Z,19.00
2018-09-08T19:02:29.712Z,17.90
2018-09-08T19:04:57.863Z,17.60
2018-09-08T19:07:26.079Z,18.70
2018-09-08T19:09:59.766Z,19.10
2018-09-08T19:12:27.934Z,19.80
2018-09-08T19:15:01.794Z,20.40
2018-09-08T19:17:29.949Z,21.50
2018-09-08T19:20:03.697Z,21.40
2018-09-08T19:22:31.786Z,22.20
2018-09-08T19:24:59.899Z,22.20
2018-09-08T19:27:28.045Z,21.70
2018-09-08T19:30:00.501Z,23.60
2018-09-08T19:32:29.001Z,23.60
2018-09-08T19:35:02.656Z,24.10
2018-09-08T19:37:33.513Z,24.30
2018-09-08T19:40:01.729Z,23.70
2018-09-08T19:42:30.790Z,24.00
2018-09-08T19:44:59.067Z,25.00
2018-09-08T19:48:34.129Z,24.70
2018-09-08T19:51:02.304Z,25.50
2018-09-08T19:53:35.883Z,25.60
2018-09-08T19:56:04.180Z,26.70
2018-09-08T19:58:37.839Z,27.60
2018-09-08T20:01:06.007Z,28.10
2018-09-08T20:03:34.135Z,28.60
2018-09-08T20:06:02.350Z,28.80
2018-09-08T20:08:30.700Z,29.30
2018-09-08T20:10:58.854Z,29.10
2018-09-08T20:13:27.123Z,29.10
2018-09-08T20:15:55.425Z,30.10
2018-09-08T20:18:23.632Z,29.60
2018-09-08T20:20:51.921Z,30.30
2018-09-08T20:23:20.292Z,30.40
2018-09-08T20:25:48.535Z,29.80
2018-09-08T20:28:16.950Z,30.00
2018-09-08T20:30:45.450Z,30.30
2018-09-08T20:33:13.680Z,30.40
2018-09-08T20:35:42.088Z,32.70
2018-09-08T20:38:10.324Z,33.40
2018-09-08T20:40:38.850Z,34.80
2018-09-08T20:43:07.012Z,35.90
2018-09-08T20:45:35.157Z,35.50
2018-09-08T20:48:03.345Z,35.40
2018-09-08T20:50:31.533Z,35.20
2018-09-08T20:52:59.894Z,35.80
2018-09-08T20:55:28.083Z,35.50
2018-09-08T20:57:56.259Z,36.60
2018-09-08T21:00:24.516Z,37.40
2018-09-08T21:02:52.822Z,37.70
2018-09-08T21:05:20.962Z,37.70
2018-09-08T21:07:49.338Z,39.00
2018-09-08T21:10:17.572Z,38.60
2018-09-08T21:12:45.900Z,37.70
2018-09-08T21:15:14.141Z,37.90
2018-09-08T21:17:42.280Z,38.90
2018-09-08T21:20:10.377Z,38.70
2018-09-08T21:22:38.545Z,38.80
2018-09-08T21:25:06.953Z,39.70
2018-09-08T21:27:35.201Z,39.50
2018-09-08T21:30:03.418Z,40.20
2018-09-08T21:32:31.559Z,40.20
2018-09-08T21:34:59.762Z,38.90
2018-09-08T21:37:28.183Z,37.90
2018-09-08T21:39:56.334Z,36.80
2018-09-08T21:42:24.577Z,35.30
2018-09-08T21:44:52.785Z,36.70
2018-09-08T21:47:20.896Z,36.60
2018-09-08T21:49:49.177Z,36.60
2018-09-08T21:52:17.297Z,36.70
2018-09-08T21:54:45.469Z,36.10
2018-09-08T21:57:13.610Z,36.60
2018-09-08T21:59:41.814Z,36.70
2018-09-08T22:02:09.983Z,36.50
2018-09-08T22:04:38.091Z,37.10
2018-09-08T22:07:06.266Z,36.90
2018-09-08T22:09:34.448Z,37.90
2018-09-08T22:12:02.700Z,38.10
2018-09-08T22:14:30.896Z,37.40
2018-09-08T22:16:59.034Z,38.00
2018-09-08T22:19:27.170Z,37.70
2018-09-08T22:21:55.312Z,36.30
2018-09-08T22:24:23.425Z,36.90
2018-09-08T22:26:51.629Z,37.40
2018-09-08T22:29:19.782Z,36.50
2018-09-08T22:31:47.976Z,36.60
2018-09-08T22:34:16.104Z,36.90
2018-09-08T22:36:44.260Z,37.40
2018-09-08T22:39:12.375Z,37.80
2018-09-08T22:41:40.560Z,38.40
2018-09-08T22:44:08.741Z,38.70
2018-09-08T22:46:36.899Z,40.40
2018-09-08T22:49:05.240Z,42.10
2018-09-08T22:51:33.535Z,43.60
2018-09-08T22:54:01.644Z,44.20
2018-09-08T22:56:29.785Z,45.50
2018-09-08T22:58:57.951Z,46.30
2018-09-08T23:01:26.101Z,47.60
2018-09-08T23:03:54.234Z,46.80
2018-09-08T23:06:22.400Z,46.40
2018-09-08T23:08:50.557Z,46.90
2018-09-08T23:11:18.675Z,46.80
2018-09-08T23:13:46.864Z,47.40
2018-09-08T23:16:15.004Z,47.90
2018-09-08T23:18:43.088Z,49.00
2018-09-08T23:21:11.176Z,49.00
2018-09-08T23:23:39.358Z,49.90
2018-09-08T23:26:07.681Z,50.60
2018-09-08T23:28:35.815Z,50.50
2018-09-08T23:31:03.928Z,50.70
2018-09-08T23:33:32.089Z,51.00
2018-09-08T23:36:00.184Z,51.30
2018-09-08T23:38:28.300Z,51.00
2018-09-08T23:40:56.484Z,50.60
2018-09-08T23:43:24.663Z,48.90
2018-09-08T23:45:52.812Z,48.80
2018-09-08T23:48:20.930Z,49.00
2018-09-08T23:50:49.070Z,47.50
2018-09-08T23:53:17.224Z,47.60
2018-09-08T23:55:45.361Z,49.60
2018-09-08T23:58:13.492Z,51.10
